sensor_id;sensor_type;location;lat;lon;timestamp;P1;durP1;ratioP1;P2;durP2;ratioP2
82781;SDS011;72517;47.260;11.422;2023-10-09T00:01:48;18.05;;;5.03;;
82781;SDS011;72517;47.260;11.422;2023-10-09T00:04:18;24.38;;;5.78;;
82781;SDS011;72517;47.260;11.422;2023-10-09T00:06:46;20.90;;;5.15;;
82781;SDS011;72517;47.260;11.422;2023-10-09T00:09:13;19.90;;;5.63;;
82781;SDS011;72517;47.260;11.422;2023-10-09T00:11:51;23.60;;;5.78;;
82781;SDS011;72517;47.260;11.422;2023-10-09T00:14:23;17.77;;;5.07;;
82781;SDS011;72517;47.260;11.422;2023-10-09T00:16:55;19.13;;;5.32;;
82781;SDS011;72517;47.260;11.422;2023-10-09T00:19:42;13.40;;;4.97;;
82781;SDS011;72517;47.260;11.422;2023-10-09T00:27:48;21.88;;;5.43;;
82781;SDS011;72517;47.260;11.422;2023-10-09T00:30:15;17.48;;;6.18;;
82781;SDS011;72517;47.260;11.422;2023-10-09T00:32:46;19.45;;;5.68;;
82781;SDS011;72517;47.260;11.422;2023-10-09T00:35:24;23.52;;;5.60;;
82781;SDS011;72517;47.260;11.422;2023-10-09T00:38:11;22.20;;;5.13;;
82781;SDS011;72517;47.260;11.422;2023-10-09T00:40:49;18.77;;;5.65;;
82781;SDS011;72517;47.260;11.422;2023-10-09T00:43:28;15.57;;;4.55;;
82781;SDS011;72517;47.260;11.422;2023-10-09T00:45:56;20.13;;;5.53;;
82781;SDS011;72517;47.260;11.422;2023-10-09T00:48:27;18.70;;;5.70;;
82781;SDS011;72517;47.260;11.422;2023-10-09T00:51:03;17.95;;;4.85;;
82781;SDS011;72517;47.260;11.422;2023-10-09T00:53:34;16.05;;;5.13;;
82781;SDS011;72517;47.260;11.422;2023-10-09T00:56:00;16.77;;;5.10;;
82781;SDS011;72517;47.260;11.422;2023-10-09T00:58:36;21.23;;;5.82;;
82781;SDS011;72517;47.260;11.422;2023-10-09T01:01:04;17.30;;;4.82;;
82781;SDS011;72517;47.260;11.422;2023-10-09T01:03:34;18.17;;;4.47;;
82781;SDS011;72517;47.260;11.422;2023-10-09T01:06:05;13.30;;;4.70;;
82781;SDS011;72517;47.260;11.422;2023-10-09T01:08:41;13.75;;;4.32;;
82781;SDS011;72517;47.260;11.422;2023-10-09T01:11:14;21.83;;;4.85;;
82781;SDS011;72517;47.260;11.422;2023-10-09T01:13:46;12.25;;;3.95;;
82781;SDS011;72517;47.260;11.422;2023-10-09T01:16:19;18.92;;;4.70;;
82781;SDS011;72517;47.260;11.422;2023-10-09T01:18:48;16.83;;;4.65;;
82781;SDS011;72517;47.260;11.422;2023-10-09T01:21:18;17.15;;;4.25;;
82781;SDS011;72517;47.260;11.422;2023-10-09T01:23:49;24.60;;;6.32;;
82781;SDS011;72517;47.260;11.422;2023-10-09T01:26:35;13.48;;;4.72;;
82781;SDS011;72517;47.260;11.422;2023-10-09T01:29:09;22.77;;;4.63;;
82781;SDS011;72517;47.260;11.422;2023-10-09T01:32:02;16.02;;;4.43;;
82781;SDS011;72517;47.260;11.422;2023-10-09T01:34:30;16.30;;;4.20;;
82781;SDS011;72517;47.260;11.422;2023-10-09T01:37:07;19.45;;;4.05;;
82781;SDS011;72517;47.260;11.422;2023-10-09T01:39:40;18.67;;;4.53;;
82781;SDS011;72517;47.260;11.422;2023-10-09T01:42:08;19.83;;;4.30;;
82781;SDS011;72517;47.260;11.422;2023-10-09T01:44:35;19.02;;;4.93;;
82781;SDS011;72517;47.260;11.422;2023-10-09T01:47:08;19.73;;;4.90;;
82781;SDS011;72517;47.260;11.422;2023-10-09T01:49:39;19.63;;;4.55;;
82781;SDS011;72517;47.260;11.422;2023-10-09T01:52:11;13.63;;;4.20;;
82781;SDS011;72517;47.260;11.422;2023-10-09T01:54:41;18.10;;;4.20;;
82781;SDS011;72517;47.260;11.422;2023-10-09T01:57:12;17.95;;;4.30;;
82781;SDS011;72517;47.260;11.422;2023-10-09T01:59:41;15.40;;;4.13;;
82781;SDS011;72517;47.260;11.422;2023-10-09T02:02:14;17.60;;;4.55;;
82781;SDS011;72517;47.260;11.422;2023-10-09T02:04:59;17.25;;;4.70;;
82781;SDS011;72517;47.260;11.422;2023-10-09T02:07:38;16.33;;;4.40;;
82781;SDS011;72517;47.260;11.422;2023-10-09T02:10:16;15.75;;;3.67;;
82781;SDS011;72517;47.260;11.422;2023-10-09T02:12:59;16.77;;;4.43;;
82781;SDS011;72517;47.260;11.422;2023-10-09T02:15:32;19.33;;;4.07;;
82781;SDS011;72517;47.260;11.422;2023-10-09T02:18:20;15.10;;;3.72;;
82781;SDS011;72517;47.260;11.422;2023-10-09T02:23:38;17.83;;;4.53;;
82781;SDS011;72517;47.260;11.422;2023-10-09T02:26:11;17.20;;;4.38;;
82781;SDS011;72517;47.260;11.422;2023-10-09T02:28:45;18.42;;;4.45;;
82781;SDS011;72517;47.260;11.422;2023-10-09T02:31:23;13.82;;;3.47;;
82781;SDS011;72517;47.260;11.422;2023-10-09T02:33:53;16.23;;;3.85;;
82781;SDS011;72517;47.260;11.422;2023-10-09T02:36:23;20.33;;;4.50;;
82781;SDS011;72517;47.260;11.422;2023-10-09T02:38:53;19.17;;;4.85;;
82781;SDS011;72517;47.260;11.422;2023-10-09T02:41:21;18.98;;;4.63;;
82781;SDS011;72517;47.260;11.422;2023-10-09T02:43:53;18.95;;;4.47;;
82781;SDS011;72517;47.260;11.422;2023-10-09T02:46:21;16.63;;;3.60;;
82781;SDS011;72517;47.260;11.422;2023-10-09T02:48:55;15.68;;;4.28;;
82781;SDS011;72517;47.260;11.422;2023-10-09T02:51:24;15.88;;;4.20;;
82781;SDS011;72517;47.260;11.422;2023-10-09T02:53:59;18.05;;;3.58;;
82781;SDS011;72517;47.260;11.422;2023-10-09T02:56:43;19.88;;;4.65;;
82781;SDS011;72517;47.260;11.422;2023-10-09T02:59:13;15.55;;;3.92;;
82781;SDS011;72517;47.260;11.422;2023-10-09T03:01:40;17.17;;;4.05;;
82781;SDS011;72517;47.260;11.422;2023-10-09T03:04:07;17.27;;;4.07;;
82781;SDS011;72517;47.260;11.422;2023-10-09T03:06:36;17.80;;;4.50;;
82781;SDS011;72517;47.260;11.422;2023-10-09T03:09:09;16.65;;;3.88;;
82781;SDS011;72517;47.260;11.422;2023-10-09T03:11:46;18.67;;;4.43;;
82781;SDS011;72517;47.260;11.422;2023-10-09T03:14:18;17.23;;;3.95;;
82781;SDS011;72517;47.260;11.422;2023-10-09T03:16:50;12.07;;;3.63;;
82781;SDS011;72517;47.260;11.422;2023-10-09T03:19:17;21.70;;;4.68;;
82781;SDS011;72517;47.260;11.422;2023-10-09T03:21:43;18.70;;;4.25;;
82781;SDS011;72517;47.260;11.422;2023-10-09T03:24:11;21.48;;;5.68;;
82781;SDS011;72517;47.260;11.422;2023-10-09T03:26:38;17.85;;;4.72;;
82781;SDS011;72517;47.260;11.422;2023-10-09T03:29:05;19.77;;;4.22;;
82781;SDS011;72517;47.260;11.422;2023-10-09T03:31:38;13.70;;;4.35;;
82781;SDS011;72517;47.260;11.422;2023-10-09T03:34:08;16.67;;;4.25;;
82781;SDS011;72517;47.260;11.422;2023-10-09T03:36:35;15.80;;;4.65;;
82781;SDS011;72517;47.260;11.422;2023-10-09T03:39:06;18.75;;;3.92;;
82781;SDS011;72517;47.260;11.422;2023-10-09T03:41:49;15.80;;;4.78;;
82781;SDS011;72517;47.260;11.422;2023-10-09T03:44:15;21.30;;;4.13;;
82781;SDS011;72517;47.260;11.422;2023-10-09T03:46:44;18.27;;;4.20;;
82781;SDS011;72517;47.260;11.422;2023-10-09T03:49:11;19.17;;;4.65;;
82781;SDS011;72517;47.260;11.422;2023-10-09T03:51:47;17.08;;;4.15;;
82781;SDS011;72517;47.260;11.422;2023-10-09T03:54:14;16.63;;;4.15;;
82781;SDS011;72517;47.260;11.422;2023-10-09T03:56:45;21.55;;;5.60;;
82781;SDS011;72517;47.260;11.422;2023-10-09T03:59:15;18.73;;;5.13;;
82781;SDS011;72517;47.260;11.422;2023-10-09T04:01:46;21.92;;;5.90;;
82781;SDS011;72517;47.260;11.422;2023-10-09T04:04:18;18.05;;;5.38;;
82781;SDS011;72517;47.260;11.422;2023-10-09T04:06:48;20.45;;;4.35;;
82781;SDS011;72517;47.260;11.422;2023-10-09T04:09:16;19.52;;;5.43;;
82781;SDS011;72517;47.260;11.422;2023-10-09T04:12:00;17.17;;;5.05;;
82781;SDS011;72517;47.260;11.422;2023-10-09T04:14:47;16.67;;;4.53;;
82781;SDS011;72517;47.260;11.422;2023-10-09T04:17:16;21.02;;;4.95;;
82781;SDS011;72517;47.260;11.422;2023-10-09T04:20:00;18.50;;;4.75;;
82781;SDS011;72517;47.260;11.422;2023-10-09T04:22:45;15.73;;;4.63;;
82781;SDS011;72517;47.260;11.422;2023-10-09T04:27:53;13.35;;;4.78;;
82781;SDS011;72517;47.260;11.422;2023-10-09T04:30:33;17.33;;;5.05;;
82781;SDS011;72517;47.260;11.422;2023-10-09T04:33:05;16.55;;;4.95;;
82781;SDS011;72517;47.260;11.422;2023-10-09T04:35:37;18.25;;;5.00;;
82781;SDS011;72517;47.260;11.422;2023-10-09T04:38:05;20.30;;;6.27;;
82781;SDS011;72517;47.260;11.422;2023-10-09T04:40:33;23.17;;;6.30;;
82781;SDS011;72517;47.260;11.422;2023-10-09T04:43:17;15.88;;;5.88;;
82781;SDS011;72517;47.260;11.422;2023-10-09T04:45:47;18.05;;;6.10;;
82781;SDS011;72517;47.260;11.422;2023-10-09T04:48:33;18.10;;;5.47;;
82781;SDS011;72517;47.260;11.422;2023-10-09T04:51:03;16.98;;;5.88;;
82781;SDS011;72517;47.260;11.422;2023-10-09T04:53:47;19.23;;;4.35;;
82781;SDS011;72517;47.260;11.422;2023-10-09T04:56:25;16.55;;;4.90;;
82781;SDS011;72517;47.260;11.422;2023-10-09T04:58:56;20.45;;;5.40;;
82781;SDS011;72517;47.260;11.422;2023-10-09T05:01:29;27.98;;;5.63;;
82781;SDS011;72517;47.260;11.422;2023-10-09T05:04:08;20.60;;;6.28;;
82781;SDS011;72517;47.260;11.422;2023-10-09T05:06:52;19.95;;;5.35;;
82781;SDS011;72517;47.260;11.422;2023-10-09T05:09:21;15.23;;;5.20;;
82781;SDS011;72517;47.260;11.422;2023-10-09T05:11:48;17.40;;;5.32;;
82781;SDS011;72517;47.260;11.422;2023-10-09T05:14:32;19.60;;;5.35;;
82781;SDS011;72517;47.260;11.422;2023-10-09T05:17:10;25.85;;;5.57;;
82781;SDS011;72517;47.260;11.422;2023-10-09T05:19:41;17.52;;;5.43;;
82781;SDS011;72517;47.260;11.422;2023-10-09T05:22:19;14.85;;;4.70;;
82781;SDS011;72517;47.260;11.422;2023-10-09T05:25:01;15.05;;;5.03;;
82781;SDS011;72517;47.260;11.422;2023-10-09T05:27:39;22.08;;;5.65;;
82781;SDS011;72517;47.260;11.422;2023-10-09T05:30:15;17.30;;;5.07;;
82781;SDS011;72517;47.260;11.422;2023-10-09T05:32:54;23.30;;;5.90;;
82781;SDS011;72517;47.260;11.422;2023-10-09T05:35:23;20.83;;;5.50;;
82781;SDS011;72517;47.260;11.422;2023-10-09T05:38:05;23.08;;;5.85;;
82781;SDS011;72517;47.260;11.422;2023-10-09T05:40:51;19.35;;;5.55;;
82781;SDS011;72517;47.260;11.422;2023-10-09T05:43:19;15.60;;;5.70;;
82781;SDS011;72517;47.260;11.422;2023-10-09T05:46:00;13.20;;;5.05;;
82781;SDS011;72517;47.260;11.422;2023-10-09T05:48:40;22.48;;;5.60;;
82781;SDS011;72517;47.260;11.422;2023-10-09T05:51:23;15.52;;;4.72;;
82781;SDS011;72517;47.260;11.422;2023-10-09T05:54:09;18.67;;;5.25;;
82781;SDS011;72517;47.260;11.422;2023-10-09T05:56:54;21.05;;;5.05;;
82781;SDS011;72517;47.260;11.422;2023-10-09T05:59:49;16.85;;;4.90;;
82781;SDS011;72517;47.260;11.422;2023-10-09T06:02:33;22.80;;;6.43;;
82781;SDS011;72517;47.260;11.422;2023-10-09T06:05:17;22.95;;;5.63;;
82781;SDS011;72517;47.260;11.422;2023-10-09T06:08:01;23.48;;;5.70;;
82781;SDS011;72517;47.260;11.422;2023-10-09T06:10:32;20.33;;;6.03;;
82781;SDS011;72517;47.260;11.422;2023-10-09T06:13:05;17.77;;;5.30;;
82781;SDS011;72517;47.260;11.422;2023-10-09T06:15:36;20.17;;;6.05;;
82781;SDS011;72517;47.260;11.422;2023-10-09T06:18:33;30.45;;;6.40;;
82781;SDS011;72517;47.260;11.422;2023-10-09T06:21:00;28.63;;;11.02;;
82781;SDS011;72517;47.260;11.422;2023-10-09T06:23:35;29.85;;;8.23;;
82781;SDS011;72517;47.260;11.422;2023-10-09T06:26:29;26.70;;;6.90;;
82781;SDS011;72517;47.260;11.422;2023-10-09T06:28:58;21.65;;;6.82;;
82781;SDS011;72517;47.260;11.422;2023-10-09T06:31:38;24.30;;;6.50;;
82781;SDS011;72517;47.260;11.422;2023-10-09T06:34:26;29.77;;;8.13;;
82781;SDS011;72517;47.260;11.422;2023-10-09T06:37:00;19.02;;;5.38;;
82781;SDS011;72517;47.260;11.422;2023-10-09T06:39:34;19.13;;;5.10;;
82781;SDS011;72517;47.260;11.422;2023-10-09T06:42:15;19.83;;;4.50;;
82781;SDS011;72517;47.260;11.422;2023-10-09T06:45:02;19.02;;;5.05;;
82781;SDS011;72517;47.260;11.422;2023-10-09T06:47:31;24.38;;;6.05;;
82781;SDS011;72517;47.260;11.422;2023-10-09T06:50:06;18.42;;;6.38;;
82781;SDS011;72517;47.260;11.422;2023-10-09T06:52:49;31.77;;;7.32;;
82781;SDS011;72517;47.260;11.422;2023-10-09T06:55:22;21.23;;;6.13;;
82781;SDS011;72517;47.260;11.422;2023-10-09T06:57:59;21.20;;;5.53;;
82781;SDS011;72517;47.260;11.422;2023-10-09T07:00:29;21.50;;;5.30;;
82781;SDS011;72517;47.260;11.422;2023-10-09T07:03:26;23.52;;;5.05;;
82781;SDS011;72517;47.260;11.422;2023-10-09T07:06:05;21.60;;;6.05;;
82781;SDS011;72517;47.260;11.422;2023-10-09T07:08:35;28.77;;;5.40;;
82781;SDS011;72517;47.260;11.422;2023-10-09T07:11:03;22.88;;;4.88;;
82781;SDS011;72517;47.260;11.422;2023-10-09T07:14:15;20.90;;;5.60;;
82781;SDS011;72517;47.260;11.422;2023-10-09T07:17:06;19.20;;;5.13;;
82781;SDS011;72517;47.260;11.422;2023-10-09T07:19:47;19.02;;;4.78;;
82781;SDS011;72517;47.260;11.422;2023-10-09T07:22:28;20.63;;;5.03;;
82781;SDS011;72517;47.260;11.422;2023-10-09T07:25:04;25.10;;;5.18;;
82781;SDS011;72517;47.260;11.422;2023-10-09T07:27:39;19.38;;;8.18;;
82781;SDS011;72517;47.260;11.422;2023-10-09T07:30:10;17.10;;;4.80;;
82781;SDS011;72517;47.260;11.422;2023-10-09T07:35:34;23.10;;;4.97;;
82781;SDS011;72517;47.260;11.422;2023-10-09T07:38:15;24.73;;;5.18;;
82781;SDS011;72517;47.260;11.422;2023-10-09T07:40:45;21.42;;;6.32;;
82781;SDS011;72517;47.260;11.422;2023-10-09T07:43:24;26.73;;;6.30;;
82781;SDS011;72517;47.260;11.422;2023-10-09T07:46:07;24.02;;;6.53;;
82781;SDS011;72517;47.260;11.422;2023-10-09T07:48:58;20.88;;;5.65;;
82781;SDS011;72517;47.260;11.422;2023-10-09T07:51:38;23.67;;;6.15;;
82781;SDS011;72517;47.260;11.422;2023-10-09T07:54:08;25.98;;;6.38;;
82781;SDS011;72517;47.260;11.422;2023-10-09T07:56:40;33.20;;;7.55;;
82781;SDS011;72517;47.260;11.422;2023-10-09T07:59:13;22.88;;;5.95;;
82781;SDS011;72517;47.260;11.422;2023-10-09T08:01:43;30.58;;;6.85;;
82781;SDS011;72517;47.260;11.422;2023-10-09T08:04:21;25.10;;;6.03;;
82781;SDS011;72517;47.260;11.422;2023-10-09T08:07:03;24.02;;;6.80;;
82781;SDS011;72517;47.260;11.422;2023-10-09T08:09:32;24.42;;;6.82;;
82781;SDS011;72517;47.260;11.422;2023-10-09T08:12:12;20.30;;;6.28;;
82781;SDS011;72517;47.260;11.422;2023-10-09T08:14:56;23.05;;;5.88;;
82781;SDS011;72517;47.260;11.422;2023-10-09T08:17:37;25.38;;;6.38;;
82781;SDS011;72517;47.260;11.422;2023-10-09T08:20:03;25.80;;;6.50;;
82781;SDS011;72517;47.260;11.422;2023-10-09T08:22:37;22.00;;;6.20;;
82781;SDS011;72517;47.260;11.422;2023-10-09T08:25:07;29.17;;;6.45;;
82781;SDS011;72517;47.260;11.422;2023-10-09T08:28:05;24.77;;;6.55;;
82781;SDS011;72517;47.260;11.422;2023-10-09T08:30:49;20.23;;;5.68;;
82781;SDS011;72517;47.260;11.422;2023-10-09T08:33:28;27.38;;;6.47;;
82781;SDS011;72517;47.260;11.422;2023-10-09T08:36:06;19.88;;;5.60;;
82781;SDS011;72517;47.260;11.422;2023-10-09T08:38:34;21.30;;;5.65;;
82781;SDS011;72517;47.260;11.422;2023-10-09T08:41:10;25.63;;;5.93;;
82781;SDS011;72517;47.260;11.422;2023-10-09T08:43:53;23.85;;;5.30;;
82781;SDS011;72517;47.260;11.422;2023-10-09T08:46:24;19.15;;;5.30;;
82781;SDS011;72517;47.260;11.422;2023-10-09T08:48:54;22.80;;;5.57;;
82781;SDS011;72517;47.260;11.422;2023-10-09T08:51:25;27.27;;;5.93;;
82781;SDS011;72517;47.260;11.422;2023-10-09T08:53:53;25.20;;;5.15;;
82781;SDS011;72517;47.260;11.422;2023-10-09T08:56:21;22.77;;;4.82;;
82781;SDS011;72517;47.260;11.422;2023-10-09T08:58:52;19.13;;;4.87;;
82781;SDS011;72517;47.260;11.422;2023-10-09T09:01:20;17.20;;;4.70;;
82781;SDS011;72517;47.260;11.422;2023-10-09T09:03:49;20.50;;;4.82;;
82781;SDS011;72517;47.260;11.422;2023-10-09T09:06:20;22.05;;;4.78;;
82781;SDS011;72517;47.260;11.422;2023-10-09T09:08:49;20.48;;;4.90;;
82781;SDS011;72517;47.260;11.422;2023-10-09T09:11:20;23.00;;;5.40;;
82781;SDS011;72517;47.260;11.422;2023-10-09T09:16:29;24.23;;;4.63;;
82781;SDS011;72517;47.260;11.422;2023-10-09T09:19:00;26.23;;;5.05;;
82781;SDS011;72517;47.260;11.422;2023-10-09T09:21:49;21.83;;;4.32;;
82781;SDS011;72517;47.260;11.422;2023-10-09T09:24:19;23.80;;;4.47;;
82781;SDS011;72517;47.260;11.422;2023-10-09T09:27:04;16.40;;;4.35;;
82781;SDS011;72517;47.260;11.422;2023-10-09T09:29:43;18.00;;;4.30;;
82781;SDS011;72517;47.260;11.422;2023-10-09T09:32:19;18.27;;;4.57;;
82781;SDS011;72517;47.260;11.422;2023-10-09T09:35:02;20.17;;;4.15;;
82781;SDS011;72517;47.260;11.422;2023-10-09T09:37:34;15.95;;;5.00;;
82781;SDS011;72517;47.260;11.422;2023-10-09T09:40:15;23.88;;;4.45;;
82781;SDS011;72517;47.260;11.422;2023-10-09T09:42:57;15.82;;;4.28;;
82781;SDS011;72517;47.260;11.422;2023-10-09T09:45:31;20.30;;;3.92;;
82781;SDS011;72517;47.260;11.422;2023-10-09T09:48:02;21.08;;;4.70;;
82781;SDS011;72517;47.260;11.422;2023-10-09T09:50:31;20.08;;;4.97;;
82781;SDS011;72517;47.260;11.422;2023-10-09T09:53:02;22.73;;;4.57;;
82781;SDS011;72517;47.260;11.422;2023-10-09T09:55:33;23.67;;;4.10;;
82781;SDS011;72517;47.260;11.422;2023-10-09T09:58:06;28.73;;;4.35;;
82781;SDS011;72517;47.260;11.422;2023-10-09T10:00:43;17.10;;;3.90;;
82781;SDS011;72517;47.260;11.422;2023-10-09T10:03:27;20.25;;;4.63;;
82781;SDS011;72517;47.260;11.422;2023-10-09T10:06:02;21.67;;;4.32;;
82781;SDS011;72517;47.260;11.422;2023-10-09T10:08:35;20.92;;;4.05;;
82781;SDS011;72517;47.260;11.422;2023-10-09T10:11:04;17.20;;;4.80;;
82781;SDS011;72517;47.260;11.422;2023-10-09T10:18:52;20.85;;;4.72;;
82781;SDS011;72517;47.260;11.422;2023-10-09T10:21:25;20.33;;;4.88;;
82781;SDS011;72517;47.260;11.422;2023-10-09T10:24:03;18.58;;;4.63;;
82781;SDS011;72517;47.260;11.422;2023-10-09T10:26:32;23.00;;;4.72;;
82781;SDS011;72517;47.260;11.422;2023-10-09T10:29:18;18.80;;;4.18;;
82781;SDS011;72517;47.260;11.422;2023-10-09T10:31:58;22.38;;;4.88;;
82781;SDS011;72517;47.260;11.422;2023-10-09T10:37:57;17.88;;;4.40;;
82781;SDS011;72517;47.260;11.422;2023-10-09T10:40:23;23.20;;;5.05;;
82781;SDS011;72517;47.260;11.422;2023-10-09T10:43:04;23.35;;;4.57;;
82781;SDS011;72517;47.260;11.422;2023-10-09T10:45:38;23.08;;;4.80;;
82781;SDS011;72517;47.260;11.422;2023-10-09T10:48:10;25.42;;;4.95;;
82781;SDS011;72517;47.260;11.422;2023-10-09T10:50:56;18.55;;;4.40;;
82781;SDS011;72517;47.260;11.422;2023-10-09T10:53:26;22.88;;;4.70;;
82781;SDS011;72517;47.260;11.422;2023-10-09T10:56:00;18.92;;;4.47;;
82781;SDS011;72517;47.260;11.422;2023-10-09T10:58:43;18.42;;;3.83;;
82781;SDS011;72517;47.260;11.422;2023-10-09T11:01:36;17.58;;;4.93;;
82781;SDS011;72517;47.260;11.422;2023-10-09T11:04:18;21.23;;;5.03;;
82781;SDS011;72517;47.260;11.422;2023-10-09T11:07:03;27.77;;;5.03;;
82781;SDS011;72517;47.260;11.422;2023-10-09T11:09:47;17.88;;;4.47;;
82781;SDS011;72517;47.260;11.422;2023-10-09T11:15:11;25.27;;;5.35;;
82781;SDS011;72517;47.260;11.422;2023-10-09T11:20:33;22.77;;;4.60;;
82781;SDS011;72517;47.260;11.422;2023-10-09T11:23:03;25.17;;;5.10;;
82781;SDS011;72517;47.260;11.422;2023-10-09T11:25:42;17.90;;;4.57;;
82781;SDS011;72517;47.260;11.422;2023-10-09T11:31:12;25.83;;;5.03;;
82781;SDS011;72517;47.260;11.422;2023-10-09T11:33:47;26.65;;;4.78;;
82781;SDS011;72517;47.260;11.422;2023-10-09T11:36:19;29.40;;;5.05;;
82781;SDS011;72517;47.260;11.422;2023-10-09T11:38:56;26.33;;;5.03;;
82781;SDS011;72517;47.260;11.422;2023-10-09T11:41:41;20.27;;;5.07;;
82781;SDS011;72517;47.260;11.422;2023-10-09T11:44:09;25.02;;;4.63;;
82781;SDS011;72517;47.260;11.422;2023-10-09T11:47:06;22.90;;;4.93;;
82781;SDS011;72517;47.260;11.422;2023-10-09T11:49:55;20.77;;;5.13;;
82781;SDS011;72517;47.260;11.422;2023-10-09T11:52:35;25.05;;;5.40;;
82781;SDS011;72517;47.260;11.422;2023-10-09T11:55:03;29.73;;;4.82;;
82781;SDS011;72517;47.260;11.422;2023-10-09T11:57:31;24.70;;;5.25;;
82781;SDS011;72517;47.260;11.422;2023-10-09T12:00:03;23.08;;;5.65;;
82781;SDS011;72517;47.260;11.422;2023-10-09T12:02:46;22.40;;;5.13;;
82781;SDS011;72517;47.260;11.422;2023-10-09T12:05:14;29.50;;;5.68;;
82781;SDS011;72517;47.260;11.422;2023-10-09T12:07:44;24.55;;;5.07;;
82781;SDS011;72517;47.260;11.422;2023-10-09T12:10:19;32.70;;;5.60;;
82781;SDS011;72517;47.260;11.422;2023-10-09T12:12:50;29.08;;;5.38;;
82781;SDS011;72517;47.260;11.422;2023-10-09T12:15:23;33.22;;;5.40;;
82781;SDS011;72517;47.260;11.422;2023-10-09T12:17:50;25.08;;;4.90;;
82781;SDS011;72517;47.260;11.422;2023-10-09T12:20:18;29.38;;;5.40;;
82781;SDS011;72517;47.260;11.422;2023-10-09T12:22:59;30.58;;;5.13;;
82781;SDS011;72517;47.260;11.422;2023-10-09T12:25:29;31.30;;;5.25;;
82781;SDS011;72517;47.260;11.422;2023-10-09T12:30:26;26.42;;;5.00;;
82781;SDS011;72517;47.260;11.422;2023-10-09T12:32:55;27.30;;;4.82;;
82781;SDS011;72517;47.260;11.422;2023-10-09T12:35:23;28.35;;;5.00;;
82781;SDS011;72517;47.260;11.422;2023-10-09T12:37:51;27.02;;;4.80;;
82781;SDS011;72517;47.260;11.422;2023-10-09T12:40:19;22.27;;;5.00;;
82781;SDS011;72517;47.260;11.422;2023-10-09T12:42:54;26.52;;;5.20;;
82781;SDS011;72517;47.260;11.422;2023-10-09T12:45:24;28.63;;;6.10;;
82781;SDS011;72517;47.260;11.422;2023-10-09T12:47:55;29.83;;;5.32;;
82781;SDS011;72517;47.260;11.422;2023-10-09T12:50:26;29.05;;;5.53;;
82781;SDS011;72517;47.260;11.422;2023-10-09T12:52:54;23.65;;;5.05;;
82781;SDS011;72517;47.260;11.422;2023-10-09T12:55:23;28.02;;;5.10;;
82781;SDS011;72517;47.260;11.422;2023-10-09T12:57:57;20.35;;;4.72;;
82781;SDS011;72517;47.260;11.422;2023-10-09T13:00:34;26.08;;;4.85;;
82781;SDS011;72517;47.260;11.422;2023-10-09T13:03:05;27.58;;;5.35;;
82781;SDS011;72517;47.260;11.422;2023-10-09T13:05:42;28.55;;;5.78;;
82781;SDS011;72517;47.260;11.422;2023-10-09T13:08:20;23.40;;;5.10;;
82781;SDS011;72517;47.260;11.422;2023-10-09T13:11:03;22.80;;;5.65;;
82781;SDS011;72517;47.260;11.422;2023-10-09T13:13:35;29.35;;;5.25;;
82781;SDS011;72517;47.260;11.422;2023-10-09T13:16:11;21.48;;;4.55;;
82781;SDS011;72517;47.260;11.422;2023-10-09T13:18:42;23.90;;;5.13;;
82781;SDS011;72517;47.260;11.422;2023-10-09T13:21:15;28.35;;;5.47;;
82781;SDS011;72517;47.260;11.422;2023-10-09T13:26:14;33.05;;;5.45;;
82781;SDS011;72517;47.260;11.422;2023-10-09T13:28:49;26.20;;;5.00;;
82781;SDS011;72517;47.260;11.422;2023-10-09T13:31:20;29.77;;;5.68;;
82781;SDS011;72517;47.260;11.422;2023-10-09T13:33:51;22.15;;;4.82;;
82781;SDS011;72517;47.260;11.422;2023-10-09T13:36:23;32.17;;;5.47;;
82781;SDS011;72517;47.260;11.422;2023-10-09T13:39:00;28.65;;;5.22;;
82781;SDS011;72517;47.260;11.422;2023-10-09T13:41:58;24.52;;;4.93;;
82781;SDS011;72517;47.260;11.422;2023-10-09T13:44:28;21.20;;;5.30;;
82781;SDS011;72517;47.260;11.422;2023-10-09T13:46:56;20.98;;;4.80;;
82781;SDS011;72517;47.260;11.422;2023-10-09T13:49:24;27.95;;;5.18;;
82781;SDS011;72517;47.260;11.422;2023-10-09T13:51:55;27.38;;;5.03;;
82781;SDS011;72517;47.260;11.422;2023-10-09T13:54:22;31.73;;;5.18;;
82781;SDS011;72517;47.260;11.422;2023-10-09T13:57:04;28.48;;;5.20;;
82781;SDS011;72517;47.260;11.422;2023-10-09T14:02:00;32.23;;;4.93;;
82781;SDS011;72517;47.260;11.422;2023-10-09T14:04:33;28.48;;;5.10;;
82781;SDS011;72517;47.260;11.422;2023-10-09T14:07:01;24.55;;;5.03;;
82781;SDS011;72517;47.260;11.422;2023-10-09T14:09:31;29.75;;;5.00;;
82781;SDS011;72517;47.260;11.422;2023-10-09T14:12:03;21.10;;;4.82;;
82781;SDS011;72517;47.260;11.422;2023-10-09T14:14:39;24.95;;;5.55;;
82781;SDS011;72517;47.260;11.422;2023-10-09T14:17:12;27.75;;;5.38;;
82781;SDS011;72517;47.260;11.422;2023-10-09T14:19:46;26.08;;;6.43;;
82781;SDS011;72517;47.260;11.422;2023-10-09T14:22:15;29.02;;;5.07;;
82781;SDS011;72517;47.260;11.422;2023-10-09T14:24:42;27.52;;;6.38;;
82781;SDS011;72517;47.260;11.422;2023-10-09T14:27:11;25.80;;;4.85;;
82781;SDS011;72517;47.260;11.422;2023-10-09T14:32:15;23.42;;;5.07;;
82781;SDS011;72517;47.260;11.422;2023-10-09T14:34:43;24.20;;;6.15;;
82781;SDS011;72517;47.260;11.422;2023-10-09T14:37:17;32.70;;;5.40;;
82781;SDS011;72517;47.260;11.422;2023-10-09T14:39:45;31.17;;;5.45;;
82781;SDS011;72517;47.260;11.422;2023-10-09T14:42:15;28.38;;;6.03;;
82781;SDS011;72517;47.260;11.422;2023-10-09T14:44:43;31.25;;;5.95;;
82781;SDS011;72517;47.260;11.422;2023-10-09T14:47:11;33.10;;;6.13;;
82781;SDS011;72517;47.260;11.422;2023-10-09T14:49:39;31.60;;;5.60;;
82781;SDS011;72517;47.260;11.422;2023-10-09T14:52:09;27.75;;;5.55;;
82781;SDS011;72517;47.260;11.422;2023-10-09T14:54:37;30.08;;;5.50;;
82781;SDS011;72517;47.260;11.422;2023-10-09T14:57:04;35.88;;;6.53;;
82781;SDS011;72517;47.260;11.422;2023-10-09T14:59:32;23.92;;;4.10;;
82781;SDS011;72517;47.260;11.422;2023-10-09T15:01:59;31.45;;;5.68;;
82781;SDS011;72517;47.260;11.422;2023-10-09T15:04:27;27.55;;;6.00;;
82781;SDS011;72517;47.260;11.422;2023-10-09T15:06:54;30.13;;;4.28;;
82781;SDS011;72517;47.260;11.422;2023-10-09T15:09:22;23.67;;;5.77;;
82781;SDS011;72517;47.260;11.422;2023-10-09T15:11:53;23.60;;;5.97;;
82781;SDS011;72517;47.260;11.422;2023-10-09T15:14:20;22.48;;;4.40;;
82781;SDS011;72517;47.260;11.422;2023-10-09T15:16:48;25.07;;;4.20;;
82781;SDS011;72517;47.260;11.422;2023-10-09T15:19:15;30.13;;;5.13;;
82781;SDS011;72517;47.260;11.422;2023-10-09T15:21:42;32.90;;;5.95;;
82781;SDS011;72517;47.260;11.422;2023-10-09T15:24:10;24.52;;;5.60;;
82781;SDS011;72517;47.260;11.422;2023-10-09T15:26:47;29.65;;;6.00;;
82781;SDS011;72517;47.260;11.422;2023-10-09T15:29:20;23.92;;;6.63;;
82781;SDS011;72517;47.260;11.422;2023-10-09T15:31:49;26.58;;;4.93;;
82781;SDS011;72517;47.260;11.422;2023-10-09T15:34:16;24.73;;;4.30;;
82781;SDS011;72517;47.260;11.422;2023-10-09T15:36:44;25.27;;;4.97;;
82781;SDS011;72517;47.260;11.422;2023-10-09T15:39:12;30.35;;;5.35;;
82781;SDS011;72517;47.260;11.422;2023-10-09T15:41:44;24.50;;;4.13;;
82781;SDS011;72517;47.260;11.422;2023-10-09T15:44:12;15.87;;;3.60;;
82781;SDS011;72517;47.260;11.422;2023-10-09T15:46:39;19.48;;;3.70;;